createdAt,value
2019-05-02T00:00:03.192Z,0.00
2019-05-02T00:01:03.180Z,0.00
2019-05-02T00:02:03.171Z,0.00
2019-05-02T00:03:04.529Z,0.00
2019-05-02T00:04:03.146Z,0.00
2019-05-02T00:05:03.136Z,0.00
2019-05-02T00:06:07.572Z,0.00
2019-05-02T00:07:03.115Z,0.00
2019-05-02T00:08:03.101Z,0.00
2019-05-02T00:09:03.912Z,0.00
2019-05-02T00:10:03.078Z,0.00
2019-05-02T00:11:03.066Z,0.00
2019-05-02T00:12:03.056Z,0.00
2019-05-02T00:13:03.044Z,0.00
2019-05-02T00:14:03.033Z,0.00
2019-05-02T00:15:03.578Z,0.00
2019-05-02T00:16:03.009Z,0.00
2019-05-02T00:17:02.995Z,0.00
2019-05-02T00:18:02.985Z,0.00
2019-05-02T00:19:02.975Z,0.00
2019-05-02T00:20:02.962Z,0.00
2019-05-02T00:21:03.240Z,0.00
2019-05-02T00:22:02.938Z,0.00
2019-05-02T00:23:02.929Z,0.00
2019-05-02T00:24:03.172Z,0.00
2019-05-02T00:25:02.905Z,0.00
2019-05-02T00:26:02.894Z,0.00
2019-05-02T00:27:03.223Z,0.00
2019-05-02T00:28:02.870Z,0.00
2019-05-02T00:29:02.859Z,0.00
2019-05-02T00:30:02.850Z,0.00
2019-05-02T00:31:07.565Z,0.00
2019-05-02T00:32:02.824Z,0.00
2019-05-02T00:33:02.813Z,0.00
2019-05-02T00:34:02.800Z,0.00
2019-05-02T00:35:02.787Z,0.00
2019-05-02T00:36:02.777Z,0.00
2019-05-02T00:37:02.765Z,0.00
2019-05-02T00:38:03.829Z,0.00
2019-05-02T00:39:02.766Z,0.00
2019-05-02T00:40:02.732Z,0.00
2019-05-02T00:41:03.695Z,0.00
2019-05-02T00:42:12.351Z,0.00
2019-05-02T00:43:02.696Z,0.00
2019-05-02T00:44:06.123Z,0.00
2019-05-02T00:45:02.672Z,0.00
2019-05-02T00:46:02.661Z,0.00
2019-05-02T00:47:06.126Z,0.00
2019-05-02T00:48:02.637Z,0.00
2019-05-02T00:49:02.625Z,0.00
2019-05-02T00:50:06.159Z,0.00
2019-05-02T00:51:02.603Z,0.00
2019-05-02T00:52:03.155Z,0.00
2019-05-02T00:53:02.584Z,0.00
2019-05-02T00:54:02.569Z,0.00
2019-05-02T00:55:02.554Z,0.00
2019-05-02T00:56:05.080Z,0.00
2019-05-02T00:57:02.532Z,0.00
2019-05-02T00:58:02.521Z,0.00
2019-05-02T00:59:07.072Z,0.00
2019-05-02T01:00:02.497Z,0.00
2019-05-02T01:01:02.489Z,0.00
2019-05-02T01:02:05.324Z,0.00
2019-05-02T01:03:02.461Z,0.00
2019-05-02T01:04:02.452Z,0.00
2019-05-02T01:05:03.232Z,0.00
2019-05-02T01:06:02.427Z,0.00
2019-05-02T01:07:02.414Z,0.00
2019-05-02T01:08:03.000Z,0.00
2019-05-02T01:09:05.798Z,0.00
2019-05-02T01:10:02.380Z,0.00
2019-05-02T01:11:02.367Z,0.00
2019-05-02T01:12:03.092Z,0.00
2019-05-02T01:13:02.342Z,0.00
2019-05-02T01:14:02.332Z,0.00
2019-05-02T01:15:03.201Z,0.00
2019-05-02T01:16:02.308Z,0.00
2019-05-02T01:17:02.298Z,0.00
2019-05-02T01:18:06.098Z,0.00
2019-05-02T01:19:02.273Z,0.00
2019-05-02T01:20:02.258Z,0.00
2019-05-02T01:21:02.790Z,0.00
2019-05-02T01:22:02.237Z,0.00
2019-05-02T01:23:02.227Z,0.00
2019-05-02T01:24:02.984Z,0.00
2019-05-02T01:25:02.202Z,0.00
2019-05-02T01:26:02.192Z,0.00
2019-05-02T01:27:04.515Z,0.00
2019-05-02T01:28:02.167Z,0.00
2019-05-02T01:29:02.181Z,0.00
2019-05-02T01:30:06.059Z,0.00
2019-05-02T01:31:02.135Z,0.00
2019-05-02T01:32:02.119Z,0.00
2019-05-02T01:33:06.393Z,0.00
2019-05-02T01:34:02.099Z,0.00
2019-05-02T01:35:02.083Z,0.00
2019-05-02T01:36:06.222Z,0.00
2019-05-02T01:37:02.063Z,0.00
2019-05-02T01:38:02.046Z,0.00
2019-05-02T01:39:02.939Z,0.00
2019-05-02T01:40:02.062Z,0.00
2019-05-02T01:41:02.011Z,0.00
2019-05-02T01:42:04.131Z,0.00
2019-05-02T01:43:01.989Z,0.00
2019-05-02T01:44:01.974Z,0.00
2019-05-02T01:45:01.964Z,0.00
2019-05-02T01:46:01.956Z,0.00
2019-05-02T01:47:01.939Z,0.00
2019-05-02T01:48:04.933Z,0.00
2019-05-02T01:49:01.915Z,0.00
2019-05-02T01:50:01.910Z,0.00
2019-05-02T01:51:04.564Z,0.00
2019-05-02T01:52:01.877Z,0.00
2019-05-02T01:53:01.864Z,0.00
2019-05-02T01:54:05.060Z,0.00
2019-05-02T01:55:01.843Z,0.00
2019-05-02T01:56:01.830Z,0.00
2019-05-02T01:57:03.929Z,0.00
2019-05-02T01:58:01.898Z,0.00
2019-05-02T01:59:01.794Z,0.00
2019-05-02T02:00:04.148Z,0.00
2019-05-02T02:01:01.771Z,0.00
2019-05-02T02:02:01.778Z,0.00
2019-05-02T02:03:04.249Z,0.00
2019-05-02T02:04:01.732Z,0.00
2019-05-02T02:05:01.720Z,0.00
2019-05-02T02:06:02.893Z,0.00
2019-05-02T02:07:01.697Z,0.00
2019-05-02T02:08:01.682Z,0.00
2019-05-02T02:09:03.387Z,0.00
2019-05-02T02:10:01.661Z,0.00
2019-05-02T02:11:01.648Z,0.00
2019-05-02T02:12:04.926Z,0.00
2019-05-02T02:13:04.863Z,0.00
2019-05-02T02:14:01.613Z,0.00
2019-05-02T02:15:01.600Z,0.00
2019-05-02T02:16:04.554Z,0.00
2019-05-02T02:17:01.573Z,0.00
2019-05-02T02:18:01.562Z,0.00
2019-05-02T02:19:03.994Z,0.00
2019-05-02T02:20:01.535Z,0.00
2019-05-02T02:21:01.526Z,0.00
2019-05-02T02:22:02.698Z,0.00
2019-05-02T02:23:01.499Z,0.00
2019-05-02T02:24:01.490Z,0.00
2019-05-02T02:25:02.906Z,0.00
2019-05-02T02:26:01.462Z,0.00
2019-05-02T02:27:01.452Z,0.00
2019-05-02T02:28:01.435Z,0.00
2019-05-02T02:29:03.021Z,0.00
2019-05-02T02:30:01.424Z,0.00
2019-05-02T02:31:04.836Z,0.00
2019-05-02T02:32:01.390Z,0.00
2019-05-02T02:33:07.797Z,0.00
2019-05-02T02:34:01.366Z,0.00
2019-05-02T02:35:03.372Z,0.00
2019-05-02T02:36:01.340Z,0.00
2019-05-02T02:37:05.414Z,0.00
2019-05-02T02:38:01.317Z,0.00
2019-05-02T02:39:07.211Z,0.00
2019-05-02T02:40:01.295Z,0.00
2019-05-02T02:41:06.588Z,0.00
2019-05-02T02:42:01.268Z,0.00
2019-05-02T02:43:12.768Z,0.00
2019-05-02T02:44:02.902Z,0.00
2019-05-02T02:45:01.230Z,0.00
2019-05-02T02:46:01.233Z,0.00
2019-05-02T02:47:01.204Z,0.00
2019-05-02T02:48:02.569Z,0.00
2019-05-02T02:49:01.182Z,0.00
2019-05-02T02:50:02.335Z,0.00
2019-05-02T02:51:01.155Z,0.00
2019-05-02T02:52:04.747Z,0.00
2019-05-02T02:53:01.128Z,0.00
2019-05-02T02:54:04.047Z,0.00
2019-05-02T02:55:01.105Z,0.00
2019-05-02T02:56:03.441Z,0.00
2019-05-02T02:57:01.078Z,0.00
2019-05-02T02:58:04.689Z,0.00
2019-05-02T02:59:01.055Z,0.00
2019-05-02T03:00:07.620Z,0.00
2019-05-02T03:01:01.048Z,0.00
2019-05-02T03:02:08.965Z,0.00
2019-05-02T03:03:01.008Z,0.00
2019-05-02T03:04:01.952Z,0.00
2019-05-02T03:05:00.977Z,0.00
2019-05-02T03:06:05.686Z,0.00
2019-05-02T03:07:00.954Z,0.00
2019-05-02T03:08:05.544Z,0.00
2019-05-02T03:09:00.930Z,0.00
2019-05-02T03:10:06.217Z,0.00
2019-05-02T03:11:00.998Z,0.00
2019-05-02T03:12:01.954Z,0.00
2019-05-02T03:13:00.878Z,0.00
2019-05-02T03:14:07.593Z,0.00
2019-05-02T03:15:00.853Z,0.00
2019-05-02T03:16:06.804Z,0.00
2019-05-02T03:17:00.827Z,0.00
2019-05-02T03:18:02.217Z,0.00
2019-05-02T03:19:00.804Z,0.00
2019-05-02T03:20:03.560Z,0.00
2019-05-02T03:21:00.787Z,0.00
2019-05-02T03:22:03.423Z,0.00
2019-05-02T03:23:00.754Z,0.00
2019-05-02T03:24:03.387Z,0.00
2019-05-02T03:25:00.744Z,0.00
2019-05-02T03:26:00.716Z,0.00
2019-05-02T03:27:00.703Z,0.00
2019-05-02T03:28:00.692Z,0.00
2019-05-02T03:29:00.982Z,0.00
2019-05-02T03:30:00.667Z,0.00
2019-05-02T03:31:11.218Z,0.00
2019-05-02T03:32:13.422Z,0.00
2019-05-02T03:33:09.697Z,0.00
2019-05-02T03:34:01.462Z,0.00
2019-05-02T03:35:00.602Z,0.00
2019-05-02T03:36:00.606Z,0.00
2019-05-02T03:37:03.320Z,0.00
2019-05-02T03:38:00.568Z,0.00
2019-05-02T03:39:06.624Z,4.00
2019-05-02T03:40:00.868Z,0.00
2019-05-02T03:41:00.527Z,0.00
2019-05-02T03:42:03.123Z,4.00
2019-05-02T03:43:00.501Z,4.00
2019-05-02T03:44:10.507Z,0.00
2019-05-02T03:45:04.808Z,4.00
2019-05-02T03:46:00.493Z,4.00
2019-05-02T03:47:02.296Z,4.00
2019-05-02T03:48:00.439Z,4.00
2019-05-02T03:49:07.367Z,4.00
2019-05-02T03:50:00.415Z,8.00
2019-05-02T03:51:04.675Z,12.00
2019-05-02T03:52:02.644Z,12.00
2019-05-02T03:53:00.394Z,12.00
2019-05-02T03:54:07.292Z,12.00
2019-05-02T03:55:00.360Z,16.00
2019-05-02T03:56:10.687Z,20.00
2019-05-02T03:57:00.325Z,24.00
2019-05-02T03:58:00.320Z,28.00
2019-05-02T03:59:00.324Z,32.00
2019-05-02T04:00:00.301Z,36.00
2019-05-02T04:01:03.565Z,40.00
2019-05-02T04:02:00.262Z,48.00
2019-05-02T04:03:02.374Z,56.00
2019-05-02T04:04:00.238Z,60.00
2019-05-02T04:05:02.551Z,68.00
2019-05-02T04:06:00.209Z,76.00
2019-05-02T04:07:01.184Z,84.00
2019-05-02T04:08:00.189Z,96.00
2019-05-02T04:09:01.891Z,104.00
2019-05-02T04:10:00.161Z,116.00
2019-05-02T04:11:01.861Z,128.00
2019-05-02T04:12:00.134Z,140.00
2019-05-02T04:13:00.165Z,152.00
2019-05-02T04:14:00.113Z,172.00
2019-05-02T04:15:00.098Z,184.00
2019-05-02T04:16:00.085Z,200.00
2019-05-02T04:17:00.072Z,220.00
2019-05-02T04:18:00.061Z,240.00
2019-05-02T04:19:00.047Z,264.00
2019-05-02T04:20:00.031Z,284.00
2019-05-02T04:21:00.022Z,308.00
2019-05-02T04:22:01.453Z,332.00
2019-05-02T04:22:59.997Z,360.00
2019-05-02T04:24:59.982Z,424.00
2019-05-02T04:25:59.956Z,460.00
2019-05-02T04:26:59.948Z,496.00
2019-05-02T04:27:59.940Z,528.00
2019-05-02T04:28:59.921Z,568.00
2019-05-02T04:30:09.744Z,608.00
2019-05-02T04:30:59.896Z,648.00
2019-05-02T04:32:04.561Z,692.00
2019-05-02T04:32:59.868Z,736.00
2019-05-02T04:33:59.855Z,776.00
2019-05-02T04:34:59.848Z,816.00
2019-05-02T04:35:59.836Z,856.00
2019-05-02T04:37:03.413Z,892.00
2019-05-02T04:38:02.720Z,928.00
2019-05-02T04:39:05.521Z,968.00
2019-05-02T04:40:03.230Z,1008.00
2019-05-02T04:40:59.770Z,1056.00
2019-05-02T04:42:05.201Z,1844.00
2019-05-02T04:43:02.155Z,3340.00
2019-05-02T04:44:01.561Z,4556.00
2019-05-02T04:45:13.940Z,4924.00
2019-05-02T04:46:00.308Z,5584.00
2019-05-02T04:47:09.942Z,6572.00
2019-05-02T04:48:03.918Z,7168.00
2019-05-02T04:48:59.669Z,6940.00
2019-05-02T04:49:59.669Z,7152.00
2019-05-02T04:51:10.260Z,8656.00
2019-05-02T04:52:06.387Z,8320.00
2019-05-02T04:52:59.628Z,10752.00
2019-05-02T04:53:59.614Z,11040.00
2019-05-02T04:55:08.351Z,10688.00
2019-05-02T04:56:04.321Z,10112.00
2019-05-02T04:57:02.360Z,5304.00
2019-05-02T04:58:01.808Z,4348.00
2019-05-02T04:59:01.872Z,1900.00
2019-05-02T05:00:06.231Z,2340.00
2019-05-02T05:01:01.825Z,2008.00
2019-05-02T05:02:01.390Z,1796.00
2019-05-02T05:02:59.524Z,1856.00
2019-05-02T05:04:03.211Z,2404.00
2019-05-02T05:04:59.504Z,2460.00
2019-05-02T05:06:07.151Z,2476.00
2019-05-02T05:07:01.239Z,2480.00
2019-05-02T05:07:59.471Z,2500.00
2019-05-02T05:09:04.209Z,2556.00
2019-05-02T05:10:03.010Z,2576.00
2019-05-02T05:10:59.439Z,2584.00
2019-05-02T05:12:02.562Z,2632.00
2019-05-02T05:12:59.420Z,2712.00
2019-05-02T05:14:00.412Z,2752.00
2019-05-02T05:15:00.466Z,2784.00
2019-05-02T05:16:02.924Z,2796.00
2019-05-02T05:16:59.378Z,2812.00
2019-05-02T05:17:59.368Z,2836.00
2019-05-02T05:19:00.096Z,2836.00
2019-05-02T05:20:00.161Z,2844.00
2019-05-02T05:20:59.334Z,2848.00
2019-05-02T05:22:04.660Z,2848.00
2019-05-02T05:22:59.316Z,2876.00
2019-05-02T05:24:01.362Z,2920.00
2019-05-02T05:24:59.295Z,2948.00
2019-05-02T05:26:03.442Z,2964.00
2019-05-02T05:27:00.151Z,2976.00
2019-05-02T05:28:05.542Z,3020.00
2019-05-02T05:28:59.254Z,3056.00
2019-05-02T05:30:07.481Z,3060.00
2019-05-02T05:30:59.235Z,3060.00
2019-05-02T05:32:05.402Z,3072.00
2019-05-02T05:32:59.216Z,3088.00
2019-05-02T05:33:59.211Z,3096.00
2019-05-02T05:35:03.277Z,3096.00
2019-05-02T05:35:59.187Z,3092.00
2019-05-02T05:37:03.736Z,3088.00
2019-05-02T05:37:59.168Z,3084.00
2019-05-02T05:39:03.022Z,3092.00
2019-05-02T05:39:59.143Z,3092.00
2019-05-02T05:41:03.075Z,3096.00
2019-05-02T05:41:59.127Z,3108.00
2019-05-02T05:43:02.727Z,3120.00
2019-05-02T05:43:59.109Z,3132.00
2019-05-02T05:45:03.924Z,3140.00
2019-05-02T05:46:09.351Z,3156.00
2019-05-02T05:46:59.080Z,3168.00
2019-05-02T05:48:01.066Z,3172.00
2019-05-02T05:48:59.059Z,3176.00
2019-05-02T05:50:01.002Z,3184.00
2019-05-02T05:50:59.041Z,3200.00
2019-05-02T05:52:02.297Z,3196.00
2019-05-02T05:52:59.553Z,3204.00
2019-05-02T05:54:03.011Z,3208.00
2019-05-02T05:54:59.009Z,3216.00
2019-05-02T05:56:02.451Z,3228.00
2019-05-02T05:56:58.981Z,3232.00
2019-05-02T05:58:03.192Z,3228.00
2019-05-02T05:58:59.307Z,3232.00
2019-05-02T06:00:03.852Z,3228.00
2019-05-02T06:00:58.949Z,3232.00
2019-05-02T06:01:58.936Z,3208.00
2019-05-02T06:03:09.976Z,3228.00
2019-05-02T06:03:58.914Z,3264.00
2019-05-02T06:05:02.104Z,3272.00
2019-05-02T06:05:58.897Z,3272.00
2019-05-02T06:07:02.940Z,3268.00
2019-05-02T06:07:58.881Z,3272.00
2019-05-02T06:08:58.870Z,3276.00
2019-05-02T06:10:02.241Z,3292.00
2019-05-02T06:10:58.856Z,3300.00
2019-05-02T06:11:58.844Z,3304.00
2019-05-02T06:12:58.835Z,3312.00
2019-05-02T06:13:58.829Z,3308.00
2019-05-02T06:15:01.927Z,3296.00
2019-05-02T06:16:02.554Z,3280.00
2019-05-02T06:16:58.805Z,3268.00
2019-05-02T06:18:00.057Z,3068.00
2019-05-02T06:18:58.784Z,3072.00
2019-05-02T06:19:58.776Z,3052.00
2019-05-02T06:21:03.300Z,2920.00
2019-05-02T06:21:58.758Z,3092.00
2019-05-02T06:23:00.070Z,3272.00
2019-05-02T06:23:58.740Z,3276.00
2019-05-02T06:24:58.734Z,3284.00
2019-05-02T06:25:58.733Z,3280.00
2019-05-02T06:26:58.713Z,3280.00
2019-05-02T06:28:00.207Z,3280.00
2019-05-02T06:28:58.699Z,3276.00
2019-05-02T06:29:58.687Z,3272.00
2019-05-02T06:31:02.250Z,3268.00
2019-05-02T06:31:58.673Z,3260.00
2019-05-02T06:32:58.663Z,3252.00
2019-05-02T06:34:02.209Z,3256.00
2019-05-02T06:34:58.644Z,3252.00
2019-05-02T06:36:01.478Z,3240.00
2019-05-02T06:36:58.630Z,3236.00
2019-05-02T06:37:58.623Z,3080.00
2019-05-02T06:38:58.615Z,3168.00
2019-05-02T06:40:03.141Z,3212.00
2019-05-02T06:40:58.599Z,3196.00
2019-05-02T06:41:58.715Z,3092.00
2019-05-02T06:42:58.583Z,3064.00
2019-05-02T06:43:58.570Z,3204.00
2019-05-02T06:44:59.713Z,3216.00
2019-05-02T06:45:58.558Z,3244.00
2019-05-02T06:46:59.250Z,3040.00
2019-05-02T06:48:01.118Z,3096.00
2019-05-02T06:48:58.534Z,3204.00
2019-05-02T06:50:01.191Z,3200.00
2019-05-02T06:50:58.527Z,3200.00
2019-05-02T06:51:58.508Z,3196.00
2019-05-02T06:52:58.502Z,3196.00
2019-05-02T06:53:58.494Z,3188.00
2019-05-02T06:54:59.160Z,3176.00
2019-05-02T06:55:58.479Z,3172.00
2019-05-02T06:56:58.483Z,3168.00
2019-05-02T06:58:02.907Z,3156.00
2019-05-02T06:58:58.457Z,3160.00
2019-05-02T06:59:58.449Z,3104.00
2019-05-02T07:00:59.117Z,2904.00
2019-05-02T07:01:58.807Z,3032.00
2019-05-02T07:02:58.426Z,3044.00
2019-05-02T07:03:58.417Z,3100.00
2019-05-02T07:04:58.410Z,3100.00
2019-05-02T07:06:02.425Z,2960.00
2019-05-02T07:06:59.754Z,2932.00
2019-05-02T07:07:58.409Z,2900.00
2019-05-02T07:08:59.705Z,2884.00
2019-05-02T07:09:58.381Z,2776.00
2019-05-02T07:11:01.548Z,2732.00
2019-05-02T07:12:01.385Z,2568.00
2019-05-02T07:13:10.167Z,2736.00
2019-05-02T07:14:11.811Z,2844.00
2019-05-02T07:15:01.519Z,2884.00
2019-05-02T07:15:58.333Z,2980.00
2019-05-02T07:16:58.324Z,2984.00
2019-05-02T07:17:58.328Z,3036.00
2019-05-02T07:18:58.313Z,3088.00
2019-05-02T07:19:58.869Z,3148.00
2019-05-02T07:20:58.298Z,3168.00
2019-05-02T07:22:00.377Z,3196.00
2019-05-02T07:22:58.282Z,3220.00
2019-05-02T07:23:58.271Z,3244.00
2019-05-02T07:25:01.942Z,3228.00
2019-05-02T07:26:00.238Z,3160.00
2019-05-02T07:26:58.255Z,3068.00
2019-05-02T07:27:58.243Z,2936.00
2019-05-02T07:28:58.240Z,2828.00
2019-05-02T07:29:59.673Z,2728.00
2019-05-02T07:30:58.226Z,2536.00
2019-05-02T07:31:58.219Z,2376.00
2019-05-02T07:33:01.226Z,2416.00
2019-05-02T07:33:58.203Z,2476.00
2019-05-02T07:34:58.194Z,2532.00
2019-05-02T07:36:00.096Z,2560.00
2019-05-02T07:36:58.184Z,2420.00
2019-05-02T07:37:58.178Z,2380.00
2019-05-02T07:39:04.967Z,2492.00
2019-05-02T07:39:58.162Z,2468.00
2019-05-02T07:40:58.155Z,2432.00
2019-05-02T07:42:00.609Z,2484.00
2019-05-02T07:42:58.145Z,2728.00
2019-05-02T07:43:58.134Z,3020.00
2019-05-02T07:44:58.127Z,3024.00
2019-05-02T07:45:58.122Z,3036.00
2019-05-02T07:47:02.628Z,3060.00
2019-05-02T07:48:01.220Z,2852.00
2019-05-02T07:48:58.104Z,3140.00
2019-05-02T07:49:58.096Z,3260.00
2019-05-02T07:50:58.092Z,3372.00
2019-05-02T07:51:58.987Z,3424.00
2019-05-02T07:52:58.076Z,3436.00
2019-05-02T07:53:58.074Z,3416.00
2019-05-02T07:55:01.096Z,3272.00
2019-05-02T07:55:58.057Z,3296.00
2019-05-02T07:56:58.051Z,3260.00
2019-05-02T07:58:02.032Z,3100.00
2019-05-02T07:58:58.038Z,3180.00
2019-05-02T08:00:00.606Z,3408.00
2019-05-02T08:00:58.028Z,3128.00
2019-05-02T08:01:58.025Z,3040.00
2019-05-02T08:02:59.362Z,3028.00
2019-05-02T08:04:04.007Z,3008.00
2019-05-02T08:04:58.005Z,3144.00
2019-05-02T08:05:58.549Z,3032.00
2019-05-02T08:06:57.989Z,3024.00
2019-05-02T08:07:57.983Z,3004.00
2019-05-02T08:09:01.702Z,2984.00
2019-05-02T08:09:58.002Z,3056.00
2019-05-02T08:11:01.818Z,3060.00
2019-05-02T08:11:57.976Z,3196.00
2019-05-02T08:12:57.955Z,3332.00
2019-05-02T08:14:00.463Z,3284.00
2019-05-02T08:15:00.301Z,3120.00
2019-05-02T08:15:57.935Z,3068.00
2019-05-02T08:17:05.496Z,3020.00
2019-05-02T08:17:57.922Z,3252.00
2019-05-02T08:19:01.398Z,3200.00
2019-05-02T08:19:57.913Z,3392.00
2019-05-02T08:20:57.908Z,3512.00
2019-05-02T08:21:57.902Z,3576.00
2019-05-02T08:22:57.895Z,3536.00
2019-05-02T08:24:02.329Z,3656.00
2019-05-02T08:24:57.883Z,3480.00
2019-05-02T08:25:57.877Z,3312.00
2019-05-02T08:26:58.246Z,3400.00
2019-05-02T08:27:57.870Z,3616.00
2019-05-02T08:28:57.864Z,3520.00
2019-05-02T08:30:00.113Z,3696.00
2019-05-02T08:30:57.850Z,3880.00
2019-05-02T08:31:57.846Z,3832.00
2019-05-02T08:32:57.842Z,3848.00
2019-05-02T08:33:57.834Z,3956.00
2019-05-02T08:34:57.830Z,3820.00
2019-05-02T08:35:57.824Z,3824.00
2019-05-02T08:36:58.911Z,3768.00
2019-05-02T08:37:57.815Z,3628.00
2019-05-02T08:38:57.815Z,3588.00
2019-05-02T08:39:57.803Z,3536.00
2019-05-02T08:40:57.803Z,3488.00
2019-05-02T08:41:57.947Z,3468.00
2019-05-02T08:42:57.787Z,3376.00
2019-05-02T08:43:57.787Z,3388.00
2019-05-02T08:45:00.968Z,3348.00
2019-05-02T08:45:57.776Z,3364.00
2019-05-02T08:46:57.768Z,3552.00
2019-05-02T08:48:00.243Z,3432.00
2019-05-02T08:48:57.759Z,3228.00
2019-05-02T08:49:57.757Z,3504.00
2019-05-02T08:50:57.749Z,3780.00
2019-05-02T08:51:57.748Z,3840.00
2019-05-02T08:52:57.740Z,3860.00
2019-05-02T08:53:58.691Z,3840.00
2019-05-02T08:54:57.731Z,3872.00
2019-05-02T08:55:57.727Z,3832.00
2019-05-02T08:56:59.104Z,3588.00
2019-05-02T08:57:57.715Z,3336.00
2019-05-02T08:58:57.715Z,3396.00
2019-05-02T09:00:00.213Z,3504.00
2019-05-02T09:00:57.703Z,3552.00
2019-05-02T09:01:57.699Z,3520.00
2019-05-02T09:03:02.747Z,3472.00
2019-05-02T09:03:57.691Z,3524.00
2019-05-02T09:04:58.990Z,3508.00
2019-05-02T09:06:05.638Z,3356.00
2019-05-02T09:06:58.733Z,3264.00
2019-05-02T09:07:57.671Z,3304.00
2019-05-02T09:08:57.666Z,3424.00
2019-05-02T09:10:00.263Z,3440.00
2019-05-02T09:10:57.657Z,3472.00
2019-05-02T09:12:11.437Z,3552.00
2019-05-02T09:12:57.648Z,3596.00
2019-05-02T09:13:57.643Z,3600.00
2019-05-02T09:14:57.639Z,3444.00
2019-05-02T09:15:57.636Z,3252.00
2019-05-02T09:17:00.194Z,3376.00
2019-05-02T09:17:57.626Z,3452.00
2019-05-02T09:18:57.619Z,3400.00
2019-05-02T09:20:02.386Z,3364.00
2019-05-02T09:20:57.613Z,3348.00
2019-05-02T09:21:57.608Z,3400.00
2019-05-02T09:22:57.604Z,3420.00
2019-05-02T09:23:57.601Z,3444.00
2019-05-02T09:24:57.597Z,3348.00
2019-05-02T09:25:57.593Z,3456.00
2019-05-02T09:26:57.588Z,3476.00
2019-05-02T09:27:57.585Z,3572.00
2019-05-02T09:29:01.624Z,3472.00
2019-05-02T09:29:57.575Z,3316.00
2019-05-02T09:31:02.272Z,3364.00
2019-05-02T09:31:57.566Z,3360.00
2019-05-02T09:33:02.826Z,3328.00
2019-05-02T09:33:57.618Z,3312.00
2019-05-02T09:35:02.116Z,3132.00
2019-05-02T09:35:57.547Z,3256.00
2019-05-02T09:36:57.542Z,3264.00
2019-05-02T09:37:57.540Z,3188.00
2019-05-02T09:38:57.787Z,3328.00
2019-05-02T09:39:57.534Z,3268.00
2019-05-02T09:40:57.529Z,3392.00
2019-05-02T09:41:57.524Z,3456.00
2019-05-02T09:43:01.939Z,3516.00
2019-05-02T09:43:57.517Z,3504.00
2019-05-02T09:44:57.513Z,3400.00
2019-05-02T09:45:57.506Z,3396.00
2019-05-02T09:46:57.552Z,3380.00
2019-05-02T09:48:05.251Z,3448.00
2019-05-02T09:49:04.347Z,3428.00
2019-05-02T09:49:57.492Z,3552.00
2019-05-02T09:50:58.075Z,3560.00
2019-05-02T09:51:59.763Z,3580.00
2019-05-02T09:52:57.475Z,3468.00
2019-05-02T09:54:02.658Z,3408.00
2019-05-02T09:54:57.469Z,3460.00
2019-05-02T09:55:58.129Z,3452.00
2019-05-02T09:56:57.460Z,3432.00
2019-05-02T09:57:57.457Z,3572.00
2019-05-02T09:59:04.789Z,3652.00
2019-05-02T09:59:57.449Z,3716.00
2019-05-02T10:00:57.442Z,3764.00
2019-05-02T10:01:57.440Z,3728.00
2019-05-02T10:02:57.437Z,3764.00
2019-05-02T10:03:57.435Z,3756.00
2019-05-02T10:04:57.434Z,3752.00
2019-05-02T10:05:57.425Z,3788.00
2019-05-02T10:06:57.424Z,3764.00
2019-05-02T10:08:02.091Z,3724.00
2019-05-02T10:08:57.418Z,3672.00
2019-05-02T10:09:57.628Z,3700.00
2019-05-02T10:10:57.406Z,3668.00
2019-05-02T10:11:57.423Z,3684.00
2019-05-02T10:12:57.410Z,3704.00
2019-05-02T10:13:57.398Z,3784.00
2019-05-02T10:14:57.399Z,3752.00
2019-05-02T10:15:57.394Z,3684.00
2019-05-02T10:16:57.647Z,3596.00
2019-05-02T10:18:08.850Z,3600.00
2019-05-02T10:19:00.316Z,3616.00
2019-05-02T10:19:57.404Z,3644.00
2019-05-02T10:20:57.362Z,3608.00
2019-05-02T10:21:57.366Z,3536.00
2019-05-02T10:22:57.353Z,3504.00
2019-05-02T10:23:59.554Z,3508.00
2019-05-02T10:24:57.349Z,3492.00
2019-05-02T10:25:57.344Z,3516.00
2019-05-02T10:27:04.025Z,3524.00
2019-05-02T10:27:57.338Z,3628.00
2019-05-02T10:28:57.332Z,3700.00
2019-05-02T10:30:01.907Z,3660.00
2019-05-02T10:30:57.375Z,3764.00
2019-05-02T10:31:57.319Z,3748.00
2019-05-02T10:32:57.457Z,3680.00
2019-05-02T10:33:57.308Z,3640.00
2019-05-02T10:34:57.306Z,3636.00
2019-05-02T10:35:57.299Z,3644.00
2019-05-02T10:36:58.866Z,3700.00
2019-05-02T10:37:57.292Z,3736.00
2019-05-02T10:38:59.253Z,3688.00
2019-05-02T10:39:57.286Z,3664.00
2019-05-02T10:41:01.504Z,3648.00
2019-05-02T10:41:57.668Z,3572.00
2019-05-02T10:42:57.271Z,3532.00
2019-05-02T10:43:59.514Z,3548.00
2019-05-02T10:44:57.261Z,3588.00
2019-05-02T10:45:57.261Z,3580.00
2019-05-02T10:46:57.255Z,3516.00
2019-05-02T10:47:57.252Z,3516.00
2019-05-02T10:48:57.248Z,3476.00
2019-05-02T10:49:57.239Z,3456.00
2019-05-02T10:50:57.237Z,3504.00
2019-05-02T10:51:57.232Z,3568.00
2019-05-02T10:52:57.231Z,3612.00
2019-05-02T10:53:57.224Z,3584.00
2019-05-02T10:54:57.222Z,3564.00
2019-05-02T10:55:57.215Z,3580.00
2019-05-02T10:56:57.208Z,3380.00
2019-05-02T10:57:57.205Z,3404.00
2019-05-02T10:58:57.201Z,3360.00
2019-05-02T10:59:57.197Z,3488.00
2019-05-02T11:00:57.194Z,3148.00
2019-05-02T11:01:57.189Z,3092.00
2019-05-02T11:02:57.186Z,3256.00
2019-05-02T11:03:57.180Z,3292.00
2019-05-02T11:04:57.175Z,3448.00
2019-05-02T11:05:57.959Z,3568.00
2019-05-02T11:06:57.169Z,3644.00
2019-05-02T11:08:04.639Z,3776.00
2019-05-02T11:08:57.160Z,3708.00
2019-05-02T11:10:02.138Z,3812.00
2019-05-02T11:10:57.150Z,3788.00
2019-05-02T11:11:57.148Z,3788.00
2019-05-02T11:12:57.142Z,3648.00
2019-05-02T11:14:00.439Z,3488.00
2019-05-02T11:14:57.144Z,3468.00
2019-05-02T11:15:57.140Z,2984.00
2019-05-02T11:16:57.126Z,3196.00
2019-05-02T11:17:57.120Z,2920.00
2019-05-02T11:18:57.119Z,2864.00
2019-05-02T11:19:57.111Z,3488.00
2019-05-02T11:20:59.090Z,3528.00
2019-05-02T11:21:59.058Z,3592.00
2019-05-02T11:22:57.098Z,3312.00
2019-05-02T11:23:57.278Z,3760.00
2019-05-02T11:24:57.090Z,3784.00
2019-05-02T11:25:57.087Z,3808.00
2019-05-02T11:26:57.083Z,3812.00
2019-05-02T11:27:57.329Z,3344.00
2019-05-02T11:28:57.076Z,3340.00
2019-05-02T11:29:57.068Z,3624.00
2019-05-02T11:31:01.506Z,3732.00
2019-05-02T11:31:57.061Z,3164.00
2019-05-02T11:32:57.059Z,3292.00
2019-05-02T11:33:57.053Z,3400.00
2019-05-02T11:34:57.047Z,3048.00
2019-05-02T11:35:57.043Z,2924.00
2019-05-02T11:36:57.038Z,3584.00
2019-05-02T11:37:57.034Z,3656.00
2019-05-02T11:39:05.724Z,3196.00
2019-05-02T11:40:00.177Z,2992.00
2019-05-02T11:40:57.022Z,2984.00
2019-05-02T11:41:57.022Z,2832.00
2019-05-02T11:43:01.453Z,2660.00
2019-05-02T11:43:57.007Z,2596.00
2019-05-02T11:44:57.009Z,2512.00
2019-05-02T11:46:02.401Z,2420.00
2019-05-02T11:46:56.996Z,2320.00
2019-05-02T11:48:03.372Z,2240.00
2019-05-02T11:48:58.699Z,2188.00
2019-05-02T11:49:56.989Z,2076.00
2019-05-02T11:50:58.164Z,1912.00
2019-05-02T11:51:57.332Z,1780.00
2019-05-02T11:52:56.965Z,1696.00
2019-05-02T11:53:59.272Z,1620.00
2019-05-02T11:54:56.958Z,1536.00
2019-05-02T11:55:58.355Z,1444.00
2019-05-02T11:56:56.950Z,1352.00
2019-05-02T11:58:01.063Z,1268.00
2019-05-02T11:58:56.942Z,1176.00
2019-05-02T11:59:59.494Z,1084.00
2019-05-02T12:00:56.933Z,992.00
2019-05-02T12:01:59.999Z,912.00
2019-05-02T12:02:58.366Z,848.00
2019-05-02T12:03:56.917Z,812.00
2019-05-02T12:04:56.914Z,808.00
2019-05-02T12:05:56.911Z,816.00
2019-05-02T12:07:01.065Z,824.00
2019-05-02T12:08:02.603Z,852.00
2019-05-02T12:08:56.893Z,880.00
2019-05-02T12:09:57.351Z,916.00
2019-05-02T12:10:56.885Z,976.00
2019-05-02T12:11:56.882Z,1044.00
2019-05-02T12:12:56.872Z,1132.00
2019-05-02T12:13:57.179Z,1168.00
2019-05-02T12:14:56.865Z,1144.00
2019-05-02T12:15:56.859Z,1104.00
2019-05-02T12:16:56.854Z,1068.00
2019-05-02T12:17:56.850Z,1064.00
2019-05-02T12:19:08.672Z,1064.00
2019-05-02T12:19:56.839Z,1104.00
2019-05-02T12:20:56.833Z,1152.00
2019-05-02T12:21:56.833Z,1144.00
2019-05-02T12:22:56.825Z,1160.00
2019-05-02T12:23:56.816Z,1172.00
2019-05-02T12:24:56.826Z,1152.00
2019-05-02T12:25:56.805Z,1128.00
2019-05-02T12:26:56.799Z,1096.00
2019-05-02T12:27:56.795Z,1084.00
2019-05-02T12:28:56.787Z,1076.00
2019-05-02T12:29:59.245Z,1064.00